createdAt,value
2018-07-09T00:02:16.414Z,1.90
2018-07-09T00:08:22.368Z,2.10
2018-07-09T00:14:28.129Z,1.73
2018-07-09T00:20:33.834Z,1.60
2018-07-09T00:26:39.534Z,1.70
2018-07-09T00:32:45.246Z,1.90
2018-07-09T00:38:51.414Z,1.83
2018-07-09T00:44:57.861Z,2.20
2018-07-09T00:51:03.683Z,1.93
2018-07-09T00:57:09.335Z,2.03
2018-07-09T01:03:15.050Z,2.33
2018-07-09T01:09:21.132Z,2.03
2018-07-09T01:15:27.305Z,2.33
2018-07-09T01:21:33.011Z,2.20
2018-07-09T01:27:38.744Z,2.20
2018-07-09T01:33:44.705Z,2.20
2018-07-09T01:39:50.440Z,2.33
2018-07-09T01:45:57.077Z,2.20
2018-07-09T01:52:02.844Z,2.30
2018-07-09T01:58:08.707Z,2.60
2018-07-09T02:04:14.416Z,2.67
2018-07-09T02:10:21.189Z,2.70
2018-07-09T02:16:26.963Z,2.80
2018-07-09T02:22:32.622Z,3.20
2018-07-09T02:28:38.306Z,3.40
2018-07-09T02:34:44.022Z,4.10
2018-07-09T02:40:49.895Z,4.50
2018-07-09T02:46:55.707Z,4.00
2018-07-09T02:53:01.517Z,3.90
2018-07-09T02:59:07.270Z,4.47
2018-07-09T03:05:13.175Z,4.10
2018-07-09T03:11:19.654Z,4.00
2018-07-09T03:17:26.755Z,4.33
2018-07-09T03:23:32.518Z,4.20
2018-07-09T03:29:38.503Z,5.13
2018-07-09T03:35:44.341Z,5.00
2018-07-09T03:41:50.322Z,5.23
2018-07-09T03:47:56.392Z,5.53
2018-07-09T03:54:02.217Z,6.00
2018-07-09T04:00:07.567Z,6.67
2018-07-09T04:06:13.484Z,6.23
2018-07-09T04:12:19.184Z,6.33
2018-07-09T04:18:26.486Z,5.80
2018-07-09T04:24:32.428Z,6.10
2018-07-09T04:30:38.123Z,6.80
2018-07-09T04:36:43.833Z,6.93
2018-07-09T04:42:49.684Z,6.37
2018-07-09T04:48:55.619Z,6.13
2018-07-09T04:55:01.327Z,5.90
2018-07-09T05:01:07.440Z,5.00
2018-07-09T05:07:13.125Z,4.43
2018-07-09T05:13:18.824Z,4.60
2018-07-09T05:19:25.042Z,4.97
2018-07-09T05:25:30.801Z,5.37
2018-07-09T05:31:36.572Z,4.93
2018-07-09T05:37:42.264Z,5.23
2018-07-09T05:43:48.047Z,5.17
2018-07-09T05:49:55.007Z,5.17
2018-07-09T05:56:00.777Z,5.60
2018-07-09T06:02:06.502Z,6.00
2018-07-09T06:08:12.173Z,5.33
2018-07-09T06:14:18.095Z,5.80
2018-07-09T06:20:24.076Z,5.37
2018-07-09T06:26:29.862Z,4.60
2018-07-09T06:32:35.834Z,4.13
2018-07-09T06:38:41.509Z,3.27
2018-07-09T06:44:47.334Z,4.50
2018-07-09T06:50:53.582Z,4.07
2018-07-09T06:56:59.343Z,3.70
2018-07-09T07:03:05.049Z,3.27
2018-07-09T07:09:10.924Z,3.40
2018-07-09T07:15:16.531Z,3.20
2018-07-09T07:21:22.571Z,2.80
2018-07-09T07:27:28.239Z,2.43
2018-07-09T07:33:33.932Z,3.00
2018-07-09T07:39:39.622Z,2.17
2018-07-09T07:45:45.667Z,2.50
2018-07-09T07:51:51.451Z,2.13
2018-07-09T07:57:57.342Z,2.13
2018-07-09T08:04:03.062Z,2.33
2018-07-09T08:10:09.210Z,2.00
2018-07-09T08:16:15.073Z,2.23
2018-07-09T08:22:20.726Z,2.07
2018-07-09T08:28:26.744Z,1.70
2018-07-09T08:34:32.641Z,1.77
2018-07-09T08:40:38.484Z,2.30
2018-07-09T08:46:43.955Z,2.47
2018-07-09T08:52:49.446Z,2.20
2018-07-09T08:58:55.317Z,1.93
2018-07-09T09:05:00.968Z,2.50
2018-07-09T09:11:06.656Z,2.40
2018-07-09T09:17:12.284Z,2.47
2018-07-09T09:23:18.365Z,2.57
2018-07-09T09:29:24.625Z,2.00
2018-07-09T09:35:30.514Z,2.40
2018-07-09T09:41:36.307Z,3.07
2018-07-09T09:47:42.057Z,2.60
2018-07-09T09:53:48.077Z,2.47
2018-07-09T09:59:54.178Z,1.90
2018-07-09T10:05:59.880Z,2.40
2018-07-09T10:12:05.659Z,2.20
2018-07-09T10:18:11.400Z,2.00
2018-07-09T10:24:17.583Z,2.13
2018-07-09T10:30:23.888Z,2.07
2018-07-09T10:36:29.834Z,2.33
2018-07-09T10:42:35.692Z,1.80
2018-07-09T10:48:41.139Z,2.20
2018-07-09T10:54:46.805Z,2.37
2018-07-09T11:00:52.740Z,1.80
2018-07-09T11:06:58.613Z,2.07
2018-07-09T11:13:04.369Z,1.90
2018-07-09T11:19:10.044Z,2.20
2018-07-09T11:25:15.712Z,1.93
2018-07-09T11:31:21.246Z,2.17
2018-07-09T11:37:27.095Z,2.10
2018-07-09T11:43:32.873Z,2.10
2018-07-09T11:49:38.564Z,2.10
2018-07-09T11:55:44.325Z,2.60
2018-07-09T12:01:50.062Z,2.43
2018-07-09T12:07:56.116Z,2.77
2018-07-09T12:14:01.834Z,2.50
2018-07-09T12:20:07.780Z,3.00
2018-07-09T12:26:13.475Z,2.23
2018-07-09T12:32:19.200Z,2.37
2018-07-09T12:38:25.273Z,2.83
2018-07-09T12:44:30.921Z,3.10
2018-07-09T12:50:36.595Z,2.50
2018-07-09T12:56:42.376Z,2.50
2018-07-09T13:02:48.040Z,3.20
2018-07-09T13:08:54.639Z,2.77
2018-07-09T13:15:01.092Z,2.73
2018-07-09T13:21:07.163Z,3.20
2018-07-09T13:27:12.899Z,2.80
2018-07-09T13:33:19.011Z,3.00
2018-07-09T13:39:24.863Z,4.17
2018-07-09T13:45:30.989Z,3.90
2018-07-09T13:51:36.743Z,3.20
2018-07-09T13:57:42.580Z,3.40
2018-07-09T14:03:48.351Z,3.17
2018-07-09T14:09:54.917Z,3.17
2018-07-09T14:16:00.892Z,2.90
2018-07-09T14:22:06.519Z,3.03
2018-07-09T14:28:12.233Z,3.20
2018-07-09T14:34:18.672Z,2.83
2018-07-09T14:40:25.285Z,2.90
2018-07-09T14:46:31.170Z,3.13
2018-07-09T14:52:36.903Z,3.30
2018-07-09T14:58:42.762Z,2.50
2018-07-09T15:04:48.467Z,2.87
2018-07-09T15:10:54.180Z,3.17
2018-07-09T15:16:59.903Z,2.80
2018-07-09T15:23:05.560Z,2.57
2018-07-09T15:29:11.286Z,2.70
2018-07-09T15:35:16.981Z,2.87
2018-07-09T15:41:23.382Z,4.83
2018-07-09T15:47:29.228Z,2.93
2018-07-09T15:53:35.052Z,2.50
2018-07-09T15:59:41.190Z,2.10
2018-07-09T16:05:47.461Z,2.40
2018-07-09T16:11:53.088Z,3.00
2018-07-09T16:17:58.765Z,3.00
2018-07-09T16:24:04.454Z,3.07
2018-07-09T16:30:10.304Z,2.97
2018-07-09T16:36:15.977Z,3.40
2018-07-09T16:42:21.713Z,3.07
2018-07-09T16:48:27.546Z,2.40
2018-07-09T16:54:33.223Z,2.53
2018-07-09T17:00:39.248Z,2.57
2018-07-09T17:06:44.912Z,2.20
2018-07-09T17:12:50.919Z,2.00
2018-07-09T17:18:57.056Z,2.03
2018-07-09T17:25:02.906Z,2.17
2018-07-09T17:31:08.630Z,2.00
2018-07-09T17:37:14.401Z,1.87
2018-07-09T17:43:20.121Z,1.77
2018-07-09T17:49:25.769Z,2.13
2018-07-09T17:55:31.789Z,1.40
2018-07-09T18:01:37.407Z,1.10
2018-07-09T18:07:43.145Z,1.80
2018-07-09T18:13:49.824Z,1.80
2018-07-09T18:19:55.832Z,1.70
2018-07-09T18:26:01.737Z,1.93
2018-07-09T18:32:07.388Z,1.60
2018-07-09T18:38:13.080Z,1.60
2018-07-09T18:44:20.011Z,1.60
2018-07-09T18:50:26.349Z,1.57
2018-07-09T18:56:32.338Z,3.13
2018-07-09T19:02:38.046Z,1.83
2018-07-09T19:08:43.805Z,3.40
2018-07-09T19:14:50.901Z,1.40
2018-07-09T19:21:39.641Z,2.03
2018-07-09T19:27:43.514Z,2.33
2018-07-09T19:33:47.620Z,2.00
2018-07-09T19:39:51.483Z,1.63
2018-07-09T19:45:55.462Z,1.97
2018-07-09T19:51:59.310Z,2.40
2018-07-09T19:58:04.681Z,1.90
2018-07-09T20:04:08.524Z,5.07
2018-07-09T20:10:17.605Z,5.10
2018-07-09T20:16:26.555Z,4.60
2018-07-09T20:22:30.406Z,3.03
2018-07-09T20:28:34.573Z,2.20
2018-07-09T20:34:38.436Z,2.93
2018-07-09T20:40:42.447Z,2.50
2018-07-09T20:46:46.654Z,2.60
2018-07-09T20:52:50.785Z,2.50
2018-07-09T20:58:54.832Z,2.70
2018-07-09T21:04:58.730Z,2.20
2018-07-09T21:11:02.592Z,2.50
2018-07-09T21:17:06.443Z,2.90
2018-07-09T21:23:10.814Z,2.53
2018-07-09T21:29:14.658Z,2.67
2018-07-09T21:35:18.488Z,2.83
2018-07-09T21:41:22.906Z,2.30
2018-07-09T21:47:26.629Z,2.17
2018-07-09T21:53:30.506Z,2.50
2018-07-09T21:59:34.383Z,1.93
2018-07-09T22:05:38.242Z,2.90
2018-07-09T22:11:42.120Z,3.30
2018-07-09T22:17:45.967Z,3.00
2018-07-09T22:23:50.300Z,2.10
2018-07-09T22:29:54.783Z,3.83
2018-07-09T22:36:00.483Z,2.40
2018-07-09T22:42:06.274Z,2.13
2018-07-09T22:48:12.057Z,2.13
2018-07-09T22:54:18.799Z,2.30
2018-07-09T23:00:24.709Z,2.00
2018-07-09T23:06:30.326Z,2.70
2018-07-09T23:13:51.287Z,2.60
2018-07-09T23:21:24.666Z,2.60
2018-07-09T23:27:28.515Z,1.93
2018-07-09T23:33:32.383Z,2.43
2018-07-09T23:39:36.250Z,1.90
2018-07-09T23:45:40.106Z,1.77
2018-07-09T23:51:44.002Z,2.13
